sensor_id;sensor_type;location;lat;lon;timestamp;pressure;altitude;pressure_sealevel;temperature;humidity
64019;BME280;66942;52.138;5.216;2024-02-21T00:01:43;102110.0;;;47.92;7.91
64019;BME280;66942;52.138;5.216;2024-02-21T00:03:19;102096.0;;;47.55;8.02
64019;BME280;66942;52.138;5.216;2024-02-21T00:04:56;102082.0;;;47.28;8.2
64019;BME280;66942;52.138;5.216;2024-02-21T00:08:09;102085.0;;;47.89;7.88
64019;BME280;66942;52.138;5.216;2024-02-21T00:09:44;102082.0;;;47.16;8.25
64019;BME280;66942;52.138;5.216;2024-02-21T00:11:21;102090.0;;;47.89;7.88
64019;BME280;66942;52.138;5.216;2024-02-21T00:12:57;102084.0;;;48.17;7.72
64019;BME280;66942;52.138;5.216;2024-02-21T00:16:09;102078.0;;;48.1;7.78
64019;BME280;66942;52.138;5.216;2024-02-21T00:17:45;102078.0;;;48.17;7.76
64019;BME280;66942;52.138;5.216;2024-02-21T00:19:21;102080.0;;;48.09;7.81
64019;BME280;66942;52.138;5.216;2024-02-21T00:22:33;102077.0;;;47.33;8.1
64019;BME280;66942;52.138;5.216;2024-02-21T00:24:09;102077.0;;;47.74;8.02
64019;BME280;66942;52.138;5.216;2024-02-21T00:25:45;102080.0;;;48.02;7.83
64019;BME280;66942;52.138;5.216;2024-02-21T00:28:58;102084.0;;;48.23;7.76
64019;BME280;66942;52.138;5.216;2024-02-21T00:30:34;102080.0;;;47.91;7.92
64019;BME280;66942;52.138;5.216;2024-02-21T00:32:10;102068.0;;;47.71;7.99
64019;BME280;66942;52.138;5.216;2024-02-21T00:33:46;102064.0;;;48.01;7.89
64019;BME280;66942;52.138;5.216;2024-02-21T00:36:58;102059.0;;;48.28;7.74
64019;BME280;66942;52.138;5.216;2024-02-21T00:38:34;102067.0;;;47.79;7.98
64019;BME280;66942;52.138;5.216;2024-02-21T00:40:11;102067.0;;;48.48;7.66
64019;BME280;66942;52.138;5.216;2024-02-21T00:43:23;102081.0;;;48.02;7.87
64019;BME280;66942;52.138;5.216;2024-02-21T00:44:59;102081.0;;;48.26;7.78
64019;BME280;66942;52.138;5.216;2024-02-21T00:46:36;102080.0;;;48.16;7.88
64019;BME280;66942;52.138;5.216;2024-02-21T00:49:48;102072.0;;;48.12;7.85
64019;BME280;66942;52.138;5.216;2024-02-21T00:51:24;102072.0;;;47.99;7.83
64019;BME280;66942;52.138;5.216;2024-02-21T00:53:00;102073.0;;;48.37;7.71
64019;BME280;66942;52.138;5.216;2024-02-21T00:56:12;102074.0;;;48.19;7.84
64019;BME280;66942;52.138;5.216;2024-02-21T00:57:48;102078.0;;;48.08;7.88
64019;BME280;66942;52.138;5.216;2024-02-21T00:59:24;102077.0;;;47.38;8.15
64019;BME280;66942;52.138;5.216;2024-02-21T01:01:01;102087.0;;;48.05;7.91
64019;BME280;66942;52.138;5.216;2024-02-21T01:04:14;102091.0;;;48.18;7.89
64019;BME280;66942;52.138;5.216;2024-02-21T01:05:50;102086.0;;;47.43;8.2
64019;BME280;66942;52.138;5.216;2024-02-21T01:07:26;102096.0;;;48.01;7.96
64019;BME280;66942;52.138;5.216;2024-02-21T01:10:38;102084.0;;;48.11;7.89
64019;BME280;66942;52.138;5.216;2024-02-21T01:12:15;102081.0;;;47.9;8.02
64019;BME280;66942;52.138;5.216;2024-02-21T01:13:51;102072.0;;;48.34;7.76
64019;BME280;66942;52.138;5.216;2024-02-21T01:17:04;102071.0;;;48.08;7.88
64019;BME280;66942;52.138;5.216;2024-02-21T01:18:40;102065.0;;;48.08;7.92
64019;BME280;66942;52.138;5.216;2024-02-21T01:20:15;102068.0;;;48.22;7.89
64019;BME280;66942;52.138;5.216;2024-02-21T01:23:28;102069.0;;;48.15;7.91
64019;BME280;66942;52.138;5.216;2024-02-21T01:25:04;102064.0;;;48.28;7.82
64019;BME280;66942;52.138;5.216;2024-02-21T01:26:41;102062.0;;;48.39;7.73
64019;BME280;66942;52.138;5.216;2024-02-21T01:28:18;102053.0;;;48.6;7.65
64019;BME280;66942;52.138;5.216;2024-02-21T01:31:30;102046.0;;;48.81;7.56
64019;BME280;66942;52.138;5.216;2024-02-21T01:33:06;102038.0;;;48.43;7.7
64019;BME280;66942;52.138;5.216;2024-02-21T01:34:42;102040.0;;;48.28;7.83
64019;BME280;66942;52.138;5.216;2024-02-21T01:37:54;102040.0;;;48.3;7.81
64019;BME280;66942;52.138;5.216;2024-02-21T01:39:31;102045.0;;;48.23;7.84
64019;BME280;66942;52.138;5.216;2024-02-21T01:41:07;102033.0;;;48.59;7.65
64019;BME280;66942;52.138;5.216;2024-02-21T01:44:19;102031.0;;;48.24;7.82
64019;BME280;66942;52.138;5.216;2024-02-21T01:45:56;102021.0;;;48.09;7.9
64019;BME280;66942;52.138;5.216;2024-02-21T01:47:33;102018.0;;;48.3;7.83
64019;BME280;66942;52.138;5.216;2024-02-21T01:49:11;102016.0;;;48.08;7.92
64019;BME280;66942;52.138;5.216;2024-02-21T01:52:25;102021.0;;;48.2;7.88
64019;BME280;66942;52.138;5.216;2024-02-21T01:54:01;102018.0;;;47.94;7.97
64019;BME280;66942;52.138;5.216;2024-02-21T01:55:37;102017.0;;;47.79;8.06
64019;BME280;66942;52.138;5.216;2024-02-21T01:58:51;102014.0;;;48.02;7.98
64019;BME280;66942;52.138;5.216;2024-02-21T02:00:27;102014.0;;;48.06;7.9
64019;BME280;66942;52.138;5.216;2024-02-21T02:02:04;102010.0;;;48.07;7.95
64019;BME280;66942;52.138;5.216;2024-02-21T02:05:19;102006.0;;;48.12;7.89
64019;BME280;66942;52.138;5.216;2024-02-21T02:06:57;102005.0;;;48.39;7.71
64019;BME280;66942;52.138;5.216;2024-02-21T02:08:35;102005.0;;;48.33;7.76
64019;BME280;66942;52.138;5.216;2024-02-21T02:10:12;102005.0;;;48.26;7.79
64019;BME280;66942;52.138;5.216;2024-02-21T02:13:24;101997.0;;;47.95;7.95
64019;BME280;66942;52.138;5.216;2024-02-21T02:15:02;101997.0;;;48.17;7.85
64019;BME280;66942;52.138;5.216;2024-02-21T02:16:39;101995.0;;;48.11;7.87
64019;BME280;66942;52.138;5.216;2024-02-21T02:19:56;101988.0;;;48.22;7.81
64019;BME280;66942;52.138;5.216;2024-02-21T02:21:34;101981.0;;;47.7;8.1
64019;BME280;66942;52.138;5.216;2024-02-21T02:23:21;101980.0;;;47.84;8.05
64019;BME280;66942;52.138;5.216;2024-02-21T02:24:57;101980.0;;;47.8;8.1
64019;BME280;66942;52.138;5.216;2024-02-21T02:28:10;101977.0;;;47.7;8.15
64019;BME280;66942;52.138;5.216;2024-02-21T02:29:46;101982.0;;;47.61;8.17
64019;BME280;66942;52.138;5.216;2024-02-21T02:31:22;101982.0;;;48.06;7.95
64019;BME280;66942;52.138;5.216;2024-02-21T02:34:34;101980.0;;;47.77;8.09
64019;BME280;66942;52.138;5.216;2024-02-21T02:36:12;101982.0;;;47.6;8.13
64019;BME280;66942;52.138;5.216;2024-02-21T02:37:48;101978.0;;;48.12;7.89
64019;BME280;66942;52.138;5.216;2024-02-21T02:39:25;101973.0;;;48.05;7.91
64019;BME280;66942;52.138;5.216;2024-02-21T02:42:37;101975.0;;;47.96;7.92
64019;BME280;66942;52.138;5.216;2024-02-21T02:44:13;101970.0;;;47.9;7.94
64019;BME280;66942;52.138;5.216;2024-02-21T02:45:49;101972.0;;;48.04;7.9
64019;BME280;66942;52.138;5.216;2024-02-21T02:49:01;101966.0;;;47.97;7.94
64019;BME280;66942;52.138;5.216;2024-02-21T02:50:37;101967.0;;;48.03;7.92
64019;BME280;66942;52.138;5.216;2024-02-21T02:52:14;101959.0;;;48.26;7.82
64019;BME280;66942;52.138;5.216;2024-02-21T02:55:26;101960.0;;;47.89;7.99
64019;BME280;66942;52.138;5.216;2024-02-21T02:57:02;101960.0;;;48.12;7.9
64019;BME280;66942;52.138;5.216;2024-02-21T02:58:38;101955.0;;;48.02;7.91
64019;BME280;66942;52.138;5.216;2024-02-21T03:00:15;101951.0;;;48.46;7.67
64019;BME280;66942;52.138;5.216;2024-02-21T03:03:27;101946.0;;;48.23;7.79
64019;BME280;66942;52.138;5.216;2024-02-21T03:05:12;101946.0;;;48.17;7.83
64019;BME280;66942;52.138;5.216;2024-02-21T03:06:49;101955.0;;;48.0;7.92
64019;BME280;66942;52.138;5.216;2024-02-21T03:10:02;101950.0;;;47.87;7.97
64019;BME280;66942;52.138;5.216;2024-02-21T03:11:39;101947.0;;;47.61;8.13
64019;BME280;66942;52.138;5.216;2024-02-21T03:13:15;101937.0;;;47.65;8.07
64019;BME280;66942;52.138;5.216;2024-02-21T03:14:51;101940.0;;;47.82;7.96
64019;BME280;66942;52.138;5.216;2024-02-21T03:18:03;101934.0;;;47.75;8.03
64019;BME280;66942;52.138;5.216;2024-02-21T03:19:40;101928.0;;;48.06;7.88
64019;BME280;66942;52.138;5.216;2024-02-21T03:21:16;101930.0;;;47.84;7.98
64019;BME280;66942;52.138;5.216;2024-02-21T03:24:31;101920.0;;;47.49;8.13
64019;BME280;66942;52.138;5.216;2024-02-21T03:26:07;101918.0;;;47.98;7.91
64019;BME280;66942;52.138;5.216;2024-02-21T03:27:43;101914.0;;;47.77;8.02
64019;BME280;66942;52.138;5.216;2024-02-21T03:30:56;101909.0;;;47.76;8.06
64019;BME280;66942;52.138;5.216;2024-02-21T03:32:32;101912.0;;;47.63;8.11
64019;BME280;66942;52.138;5.216;2024-02-21T03:34:09;101902.0;;;47.91;7.99
64019;BME280;66942;52.138;5.216;2024-02-21T03:35:46;101890.0;;;47.3;8.07
64019;BME280;66942;52.138;5.216;2024-02-21T03:38:58;101885.0;;;48.41;7.68
64019;BME280;66942;52.138;5.216;2024-02-21T03:40:34;101882.0;;;48.55;7.59
64019;BME280;66942;52.138;5.216;2024-02-21T03:42:10;101886.0;;;47.55;8.1
64019;BME280;66942;52.138;5.216;2024-02-21T03:45:24;101881.0;;;47.32;8.3
64019;BME280;66942;52.138;5.216;2024-02-21T03:47:00;101881.0;;;47.79;8.0
64019;BME280;66942;52.138;5.216;2024-02-21T03:48:36;101884.0;;;47.82;8.0
64019;BME280;66942;52.138;5.216;2024-02-21T03:51:49;101888.0;;;47.51;8.13
64019;BME280;66942;52.138;5.216;2024-02-21T03:53:25;101884.0;;;47.75;8.02
64019;BME280;66942;52.138;5.216;2024-02-21T03:55:01;101885.0;;;48.14;7.83
64019;BME280;66942;52.138;5.216;2024-02-21T03:58:15;101880.0;;;48.03;7.84
64019;BME280;66942;52.138;5.216;2024-02-21T03:59:51;101878.0;;;48.47;7.6
64019;BME280;66942;52.138;5.216;2024-02-21T04:01:27;101880.0;;;48.39;7.65
64019;BME280;66942;52.138;5.216;2024-02-21T04:03:04;101880.0;;;48.55;7.57
64019;BME280;66942;52.138;5.216;2024-02-21T04:06:19;101877.0;;;48.47;7.6
64019;BME280;66942;52.138;5.216;2024-02-21T04:07:55;101877.0;;;47.9;7.91
64019;BME280;66942;52.138;5.216;2024-02-21T04:09:31;101887.0;;;47.9;7.94
64019;BME280;66942;52.138;5.216;2024-02-21T04:12:43;101884.0;;;47.56;8.08
64019;BME280;66942;52.138;5.216;2024-02-21T04:14:19;101877.0;;;46.95;8.33
64019;BME280;66942;52.138;5.216;2024-02-21T04:15:55;101870.0;;;47.83;7.92
64019;BME280;66942;52.138;5.216;2024-02-21T04:19:07;101864.0;;;47.61;8.01
64019;BME280;66942;52.138;5.216;2024-02-21T04:20:43;101864.0;;;48.14;7.77
64019;BME280;66942;52.138;5.216;2024-02-21T04:22:20;101857.0;;;47.34;8.03
64019;BME280;66942;52.138;5.216;2024-02-21T04:23:56;101864.0;;;47.85;7.87
64019;BME280;66942;52.138;5.216;2024-02-21T04:27:08;101867.0;;;47.75;7.94
64019;BME280;66942;52.138;5.216;2024-02-21T04:28:44;101862.0;;;47.89;7.87
64019;BME280;66942;52.138;5.216;2024-02-21T04:30:21;101859.0;;;47.69;8.0
64019;BME280;66942;52.138;5.216;2024-02-21T04:33:33;101859.0;;;47.72;7.97
64019;BME280;66942;52.138;5.216;2024-02-21T04:35:09;101858.0;;;47.73;7.92
64019;BME280;66942;52.138;5.216;2024-02-21T04:36:45;101858.0;;;47.69;7.94
64019;BME280;66942;52.138;5.216;2024-02-21T04:39:58;101851.0;;;47.31;8.14
64019;BME280;66942;52.138;5.216;2024-02-21T04:41:34;101850.0;;;47.79;7.86
64019;BME280;66942;52.138;5.216;2024-02-21T04:43:10;101849.0;;;47.25;8.14
64019;BME280;66942;52.138;5.216;2024-02-21T04:46:22;101837.0;;;47.41;8.06
64019;BME280;66942;52.138;5.216;2024-02-21T04:47:58;101833.0;;;47.37;8.1
64019;BME280;66942;52.138;5.216;2024-02-21T04:49:34;101835.0;;;47.52;7.98
64019;BME280;66942;52.138;5.216;2024-02-21T04:51:11;101836.0;;;47.75;7.92
64019;BME280;66942;52.138;5.216;2024-02-21T04:54:23;101830.0;;;47.28;8.09
64019;BME280;66942;52.138;5.216;2024-02-21T04:56:03;101836.0;;;47.05;8.23
64019;BME280;66942;52.138;5.216;2024-02-21T04:57:40;101832.0;;;47.43;8.0
64019;BME280;66942;52.138;5.216;2024-02-21T05:00:53;101826.0;;;46.99;8.31
64019;BME280;66942;52.138;5.216;2024-02-21T05:02:29;101828.0;;;46.86;8.31
64019;BME280;66942;52.138;5.216;2024-02-21T05:04:05;101824.0;;;47.34;8.07
64019;BME280;66942;52.138;5.216;2024-02-21T05:07:17;101827.0;;;47.12;8.17
64019;BME280;66942;52.138;5.216;2024-02-21T05:08:53;101831.0;;;46.92;8.31
64019;BME280;66942;52.138;5.216;2024-02-21T05:10:29;101826.0;;;47.33;8.1
64019;BME280;66942;52.138;5.216;2024-02-21T05:12:06;101824.0;;;47.42;8.07
64019;BME280;66942;52.138;5.216;2024-02-21T05:15:19;101820.0;;;47.41;8.03
64019;BME280;66942;52.138;5.216;2024-02-21T05:16:55;101822.0;;;47.5;7.97
64019;BME280;66942;52.138;5.216;2024-02-21T05:18:31;101814.0;;;47.32;8.15
64019;BME280;66942;52.138;5.216;2024-02-21T05:21:44;101809.0;;;47.55;7.98
64019;BME280;66942;52.138;5.216;2024-02-21T05:23:20;101809.0;;;47.7;7.87
64019;BME280;66942;52.138;5.216;2024-02-21T05:24:56;101798.0;;;46.5;8.44
64019;BME280;66942;52.138;5.216;2024-02-21T05:28:08;101803.0;;;47.31;8.14
64019;BME280;66942;52.138;5.216;2024-02-21T05:29:47;101798.0;;;47.66;7.96
64019;BME280;66942;52.138;5.216;2024-02-21T05:31:23;101788.0;;;47.38;8.08
64019;BME280;66942;52.138;5.216;2024-02-21T05:33:04;101786.0;;;47.43;8.08
64019;BME280;66942;52.138;5.216;2024-02-21T05:36:16;101783.0;;;47.7;7.94
64019;BME280;66942;52.138;5.216;2024-02-21T05:37:52;101773.0;;;47.59;7.96
64019;BME280;66942;52.138;5.216;2024-02-21T05:39:28;101770.0;;;47.28;8.06
64019;BME280;66942;52.138;5.216;2024-02-21T05:42:41;101768.0;;;47.39;8.11
64019;BME280;66942;52.138;5.216;2024-02-21T05:44:18;101760.0;;;47.86;7.86
64019;BME280;66942;52.138;5.216;2024-02-21T05:45:54;101758.0;;;47.99;7.78
64019;BME280;66942;52.138;5.216;2024-02-21T05:49:07;101751.0;;;47.94;7.77
64019;BME280;66942;52.138;5.216;2024-02-21T05:50:43;101745.0;;;46.83;8.22
64019;BME280;66942;52.138;5.216;2024-02-21T05:52:19;101747.0;;;47.64;7.95
64019;BME280;66942;52.138;5.216;2024-02-21T05:53:55;101743.0;;;47.98;7.79
64019;BME280;66942;52.138;5.216;2024-02-21T05:57:07;101742.0;;;47.8;7.87
64019;BME280;66942;52.138;5.216;2024-02-21T05:58:44;101744.0;;;47.81;7.86
64019;BME280;66942;52.138;5.216;2024-02-21T06:00:20;101738.0;;;47.75;7.88
64019;BME280;66942;52.138;5.216;2024-02-21T06:03:33;101738.0;;;47.77;7.89
64019;BME280;66942;52.138;5.216;2024-02-21T06:05:10;101743.0;;;47.99;7.76
64019;BME280;66942;52.138;5.216;2024-02-21T06:06:46;101740.0;;;47.75;7.91
64019;BME280;66942;52.138;5.216;2024-02-21T06:09:58;101740.0;;;47.54;8.0
64019;BME280;66942;52.138;5.216;2024-02-21T06:11:34;101735.0;;;47.89;7.83
64019;BME280;66942;52.138;5.216;2024-02-21T06:13:10;101726.0;;;47.3;8.16
64019;BME280;66942;52.138;5.216;2024-02-21T06:14:46;101724.0;;;47.77;7.86
64019;BME280;66942;52.138;5.216;2024-02-21T06:17:58;101728.0;;;47.06;8.19
64019;BME280;66942;52.138;5.216;2024-02-21T06:19:34;101728.0;;;46.04;8.73
64019;BME280;66942;52.138;5.216;2024-02-21T06:21:11;101730.0;;;47.66;7.95
64019;BME280;66942;52.138;5.216;2024-02-21T06:24:24;101727.0;;;46.1;8.71
64019;BME280;66942;52.138;5.216;2024-02-21T06:26:00;101732.0;;;47.79;7.87
64019;BME280;66942;52.138;5.216;2024-02-21T06:27:36;101728.0;;;47.79;7.85
64019;BME280;66942;52.138;5.216;2024-02-21T06:30:48;101737.0;;;46.92;8.26
64019;BME280;66942;52.138;5.216;2024-02-21T06:32:24;101742.0;;;47.51;7.96
64019;BME280;66942;52.138;5.216;2024-02-21T06:34:00;101741.0;;;47.69;7.95
64019;BME280;66942;52.138;5.216;2024-02-21T06:37:16;101740.0;;;47.79;7.83
64019;BME280;66942;52.138;5.216;2024-02-21T06:38:52;101740.0;;;47.74;7.87
64019;BME280;66942;52.138;5.216;2024-02-21T06:40:28;101740.0;;;47.84;7.84
64019;BME280;66942;52.138;5.216;2024-02-21T06:42:04;101731.0;;;47.61;7.94
64019;BME280;66942;52.138;5.216;2024-02-21T06:45:16;101737.0;;;47.69;7.87
64019;BME280;66942;52.138;5.216;2024-02-21T06:46:53;101733.0;;;47.16;8.16
64019;BME280;66942;52.138;5.216;2024-02-21T06:48:29;101732.0;;;46.95;8.23
64019;BME280;66942;52.138;5.216;2024-02-21T06:51:42;101728.0;;;47.34;8.01
64019;BME280;66942;52.138;5.216;2024-02-21T06:53:18;101727.0;;;45.63;8.88
64019;BME280;66942;52.138;5.216;2024-02-21T06:54:54;101724.0;;;47.48;7.98
64019;BME280;66942;52.138;5.216;2024-02-21T06:58:07;101725.0;;;47.48;8.02
64019;BME280;66942;52.138;5.216;2024-02-21T06:59:43;101719.0;;;47.41;8.03
64019;BME280;66942;52.138;5.216;2024-02-21T07:01:19;101713.0;;;47.07;8.14
64019;BME280;66942;52.138;5.216;2024-02-21T07:02:55;101711.0;;;47.47;7.92
64019;BME280;66942;52.138;5.216;2024-02-21T07:06:07;101711.0;;;47.99;7.72
64019;BME280;66942;52.138;5.216;2024-02-21T07:07:43;101712.0;;;47.71;7.83
64019;BME280;66942;52.138;5.216;2024-02-21T07:09:19;101707.0;;;47.11;8.1
64019;BME280;66942;52.138;5.216;2024-02-21T07:12:31;101708.0;;;47.09;8.17
64019;BME280;66942;52.138;5.216;2024-02-21T07:14:08;101705.0;;;47.66;7.87
64019;BME280;66942;52.138;5.216;2024-02-21T07:15:44;101709.0;;;47.57;7.94
64019;BME280;66942;52.138;5.216;2024-02-21T07:18:56;101703.0;;;47.45;7.96
64019;BME280;66942;52.138;5.216;2024-02-21T07:20:32;101699.0;;;47.4;7.98
64019;BME280;66942;52.138;5.216;2024-02-21T07:22:08;101692.0;;;46.41;8.35
64019;BME280;66942;52.138;5.216;2024-02-21T07:25:20;101690.0;;;47.03;8.14
64019;BME280;66942;52.138;5.216;2024-02-21T07:26:56;101697.0;;;46.65;8.4
64019;BME280;66942;52.138;5.216;2024-02-21T07:28:32;101692.0;;;47.53;7.91
64019;BME280;66942;52.138;5.216;2024-02-21T07:30:09;101693.0;;;47.3;8.0
64019;BME280;66942;52.138;5.216;2024-02-21T07:33:22;101690.0;;;47.52;7.9
64019;BME280;66942;52.138;5.216;2024-02-21T07:34:58;101686.0;;;47.48;7.92
64019;BME280;66942;52.138;5.216;2024-02-21T07:36:34;101685.0;;;47.35;7.99
64019;BME280;66942;52.138;5.216;2024-02-21T07:39:47;101673.0;;;47.1;8.11
64019;BME280;66942;52.138;5.216;2024-02-21T07:41:24;101668.0;;;47.43;7.97
64019;BME280;66942;52.138;5.216;2024-02-21T07:43:00;101659.0;;;46.94;8.25
64019;BME280;66942;52.138;5.216;2024-02-21T07:46:13;101655.0;;;47.29;8.03
64019;BME280;66942;52.138;5.216;2024-02-21T07:47:49;101653.0;;;47.4;7.95
64019;BME280;66942;52.138;5.216;2024-02-21T07:49:25;101648.0;;;47.01;8.15
64019;BME280;66942;52.138;5.216;2024-02-21T07:51:01;101639.0;;;47.69;7.78
64019;BME280;66942;52.138;5.216;2024-02-21T07:54:14;101638.0;;;47.45;7.89
64019;BME280;66942;52.138;5.216;2024-02-21T07:55:50;101639.0;;;47.31;7.94
64019;BME280;66942;52.138;5.216;2024-02-21T07:57:26;101635.0;;;47.27;8.0
64019;BME280;66942;52.138;5.216;2024-02-21T08:00:38;101637.0;;;47.44;7.92
64019;BME280;66942;52.138;5.216;2024-02-21T08:02:15;101638.0;;;47.38;7.99
64019;BME280;66942;52.138;5.216;2024-02-21T08:03:52;101640.0;;;47.06;8.11
64019;BME280;66942;52.138;5.216;2024-02-21T08:07:04;101638.0;;;47.37;8.0
64019;BME280;66942;52.138;5.216;2024-02-21T08:08:40;101634.0;;;47.7;7.8
64019;BME280;66942;52.138;5.216;2024-02-21T08:10:17;101628.0;;;47.41;7.91
64019;BME280;66942;52.138;5.216;2024-02-21T08:13:31;101626.0;;;47.22;7.95
64019;BME280;66942;52.138;5.216;2024-02-21T08:15:08;101627.0;;;47.12;8.09
64019;BME280;66942;52.138;5.216;2024-02-21T08:16:44;101623.0;;;46.98;8.17
64019;BME280;66942;52.138;5.216;2024-02-21T08:18:24;101621.0;;;47.58;7.83
64019;BME280;66942;52.138;5.216;2024-02-21T08:21:36;101621.0;;;47.65;7.81
64019;BME280;66942;52.138;5.216;2024-02-21T08:23:12;101618.0;;;46.18;8.51
64019;BME280;66942;52.138;5.216;2024-02-21T08:24:48;101619.0;;;47.64;7.87
64019;BME280;66942;52.138;5.216;2024-02-21T08:28:00;101616.0;;;47.36;7.95
64019;BME280;66942;52.138;5.216;2024-02-21T08:29:36;101613.0;;;46.99;8.03
64019;BME280;66942;52.138;5.216;2024-02-21T08:31:18;101611.0;;;47.28;7.98
64019;BME280;66942;52.138;5.216;2024-02-21T08:32:54;101605.0;;;46.85;8.14
64019;BME280;66942;52.138;5.216;2024-02-21T08:36:06;101602.0;;;45.68;8.63
64019;BME280;66942;52.138;5.216;2024-02-21T08:37:43;101602.0;;;47.22;7.99
64019;BME280;66942;52.138;5.216;2024-02-21T08:39:19;101599.0;;;46.7;8.19
64019;BME280;66942;52.138;5.216;2024-02-21T08:42:31;101597.0;;;47.1;8.09
64019;BME280;66942;52.138;5.216;2024-02-21T08:44:10;101597.0;;;47.11;8.14
64019;BME280;66942;52.138;5.216;2024-02-21T08:45:46;101580.0;;;47.33;7.95
64019;BME280;66942;52.138;5.216;2024-02-21T08:48:58;101573.0;;;46.95;8.1
64019;BME280;66942;52.138;5.216;2024-02-21T08:50:34;101568.0;;;47.33;8.05
64019;BME280;66942;52.138;5.216;2024-02-21T08:52:11;101569.0;;;47.4;8.0
64019;BME280;66942;52.138;5.216;2024-02-21T08:53:48;101569.0;;;46.95;7.98
64019;BME280;66942;52.138;5.216;2024-02-21T08:57:01;101571.0;;;45.05;8.94
64019;BME280;66942;52.138;5.216;2024-02-21T08:58:38;101578.0;;;46.61;8.33
64019;BME280;66942;52.138;5.216;2024-02-21T09:00:16;101571.0;;;46.92;8.17
64019;BME280;66942;52.138;5.216;2024-02-21T09:03:28;101569.0;;;47.29;8.06
64019;BME280;66942;52.138;5.216;2024-02-21T09:05:04;101562.0;;;47.27;7.97
64019;BME280;66942;52.138;5.216;2024-02-21T09:06:44;101566.0;;;47.57;7.87
64019;BME280;66942;52.138;5.216;2024-02-21T09:09:57;101558.0;;;47.28;7.94
64019;BME280;66942;52.138;5.216;2024-02-21T09:11:33;101558.0;;;46.91;8.14
64019;BME280;66942;52.138;5.216;2024-02-21T09:13:10;101552.0;;;47.81;7.7
64019;BME280;66942;52.138;5.216;2024-02-21T09:14:46;101551.0;;;47.65;7.79
64019;BME280;66942;52.138;5.216;2024-02-21T09:17:58;101550.0;;;47.14;8.08
64019;BME280;66942;52.138;5.216;2024-02-21T09:19:35;101550.0;;;46.55;8.34
64019;BME280;66942;52.138;5.216;2024-02-21T09:21:11;101547.0;;;46.9;8.17
64019;BME280;66942;52.138;5.216;2024-02-21T09:24:24;101542.0;;;47.32;7.9
64019;BME280;66942;52.138;5.216;2024-02-21T09:26:00;101541.0;;;47.84;7.65
64019;BME280;66942;52.138;5.216;2024-02-21T09:27:37;101534.0;;;47.52;7.86
64019;BME280;66942;52.138;5.216;2024-02-21T09:30:51;101528.0;;;47.48;7.7
64019;BME280;66942;52.138;5.216;2024-02-21T09:32:27;101524.0;;;45.9;8.45
64019;BME280;66942;52.138;5.216;2024-02-21T09:34:03;101516.0;;;47.3;7.86
64019;BME280;66942;52.138;5.216;2024-02-21T09:35:39;101514.0;;;47.5;7.8
64019;BME280;66942;52.138;5.216;2024-02-21T09:38:51;101503.0;;;47.61;7.73
64019;BME280;66942;52.138;5.216;2024-02-21T09:40:32;101506.0;;;47.46;7.8
64019;BME280;66942;52.138;5.216;2024-02-21T09:42:11;101501.0;;;47.71;7.78
64019;BME280;66942;52.138;5.216;2024-02-21T09:45:26;101499.0;;;47.71;7.6
64019;BME280;66942;52.138;5.216;2024-02-21T09:47:03;101488.0;;;46.67;8.0
64019;BME280;66942;52.138;5.216;2024-02-21T09:48:50;101483.0;;;47.06;7.87
64019;BME280;66942;52.138;5.216;2024-02-21T09:50:34;101476.0;;;46.58;8.02
64019;BME280;66942;52.138;5.216;2024-02-21T09:53:53;101465.0;;;47.31;7.78
64019;BME280;66942;52.138;5.216;2024-02-21T09:55:31;101455.0;;;47.33;7.66
64019;BME280;66942;52.138;5.216;2024-02-21T09:57:09;101448.0;;;47.9;7.51
64019;BME280;66942;52.138;5.216;2024-02-21T09:58:46;101438.0;;;46.54;8.05
64019;BME280;66942;52.138;5.216;2024-02-21T10:02:02;101441.0;;;46.97;7.88
64019;BME280;66942;52.138;5.216;2024-02-21T10:03:38;101436.0;;;47.2;7.84
64019;BME280;66942;52.138;5.216;2024-02-21T10:05:14;101430.0;;;47.62;7.67
64019;BME280;66942;52.138;5.216;2024-02-21T10:08:26;101425.0;;;46.17;8.39
64019;BME280;66942;52.138;5.216;2024-02-21T10:10:03;101416.0;;;47.04;7.73
64019;BME280;66942;52.138;5.216;2024-02-21T10:11:40;101416.0;;;47.79;7.71
64019;BME280;66942;52.138;5.216;2024-02-21T10:13:24;101419.0;;;45.23;8.77
64019;BME280;66942;52.138;5.216;2024-02-21T10:16:38;101406.0;;;46.53;8.08
64019;BME280;66942;52.138;5.216;2024-02-21T10:18:17;101403.0;;;46.75;7.85
64019;BME280;66942;52.138;5.216;2024-02-21T10:19:54;101403.0;;;46.61;8.03
64019;BME280;66942;52.138;5.216;2024-02-21T10:23:06;101401.0;;;47.86;7.44
64019;BME280;66942;52.138;5.216;2024-02-21T10:24:45;101396.0;;;47.33;7.69
64019;BME280;66942;52.138;5.216;2024-02-21T10:26:21;101387.0;;;47.43;7.65
64019;BME280;66942;52.138;5.216;2024-02-21T10:27:58;101383.0;;;47.56;7.68
64019;BME280;66942;52.138;5.216;2024-02-21T10:31:21;101382.0;;;47.73;7.6
64019;BME280;66942;52.138;5.216;2024-02-21T10:32:57;101380.0;;;47.46;7.69
64019;BME280;66942;52.138;5.216;2024-02-21T10:34:34;101383.0;;;48.04;7.53
64019;BME280;66942;52.138;5.216;2024-02-21T10:37:48;101364.0;;;47.21;7.66
64019;BME280;66942;52.138;5.216;2024-02-21T10:39:24;101359.0;;;47.35;7.68
64019;BME280;66942;52.138;5.216;2024-02-21T10:41:00;101348.0;;;47.29;7.74
64019;BME280;66942;52.138;5.216;2024-02-21T10:42:37;101343.0;;;48.1;7.39
64019;BME280;66942;52.138;5.216;2024-02-21T10:45:54;101334.0;;;48.35;7.27
64019;BME280;66942;52.138;5.216;2024-02-21T10:47:35;101330.0;;;48.01;7.52
64019;BME280;66942;52.138;5.216;2024-02-21T10:49:20;101323.0;;;47.5;7.66
64019;BME280;66942;52.138;5.216;2024-02-21T10:51:05;101310.0;;;48.17;7.44
64019;BME280;66942;52.138;5.216;2024-02-21T10:54:43;101305.0;;;47.55;7.59
64019;BME280;66942;52.138;5.216;2024-02-21T10:56:24;101287.0;;;47.38;7.83
64019;BME280;66942;52.138;5.216;2024-02-21T10:58:08;101261.0;;;46.62;8.0
64019;BME280;66942;52.138;5.216;2024-02-21T10:59:48;101274.0;;;48.22;7.4
64019;BME280;66942;52.138;5.216;2024-02-21T11:01:24;101275.0;;;48.2;7.4
64019;BME280;66942;52.138;5.216;2024-02-21T11:04:40;101284.0;;;48.36;7.34
64019;BME280;66942;52.138;5.216;2024-02-21T11:06:18;101340.0;;;48.46;7.33
64019;BME280;66942;52.138;5.216;2024-02-21T11:07:56;101339.0;;;47.67;7.61
64019;BME280;66942;52.138;5.216;2024-02-21T11:11:12;101343.0;;;47.99;7.49
64019;BME280;66942;52.138;5.216;2024-02-21T11:12:49;101333.0;;;47.69;7.62
64019;BME280;66942;52.138;5.216;2024-02-21T11:14:28;101335.0;;;48.43;7.21